This is the latest recevied weather packets stored in our database for station/object EB5AGF-13. If no packets are shown the sender has not sent any weather packets the latest 10 day(s).
| Time | Temp. | Humidity | Pressure | Rain* | Wind** | Luminosity | Snow |
|---|---|---|---|---|---|---|---|
| 1777898371 | 22.22° C | 74% | 1008.9 hPa | 0 mm | 2.68 m/s, 273° | 660 W/m² | - |
| 1777898071 | 22.22° C | 75% | 1008.9 hPa | 0 mm | 1.34 m/s, 242° | 513 W/m² | - |
| 1777897769 | 21.67° C | 77% | 1009 hPa | 0 mm | 2.68 m/s, 297° | 668 W/m² | - |
| 1777897161 | 21.67° C | 77% | 1008.9 hPa | 0 mm | 1.79 m/s, 167° | 676 W/m² | - |
| 1777896856 | 22.22° C | 77% | 1009.4 hPa | 0 mm | 1.79 m/s, 236° | 713 W/m² | - |
| 1777896552 | 22.22° C | 73% | 1009.1 hPa | 0 mm | 1.34 m/s, 34° | 524 W/m² | - |
| 1777896249 | 22.22° C | 72% | 1009 hPa | 0 mm | 1.34 m/s, 198° | 543 W/m² | - |
| 1777895945 | 21.67° C | 74% | 1009.2 hPa | 0 mm | 1.79 m/s, 311° | 676 W/m² | - |
| 1777895641 | 21.67° C | 76% | 1009.5 hPa | 0 mm | 1.79 m/s, 267° | 678 W/m² | - |
| 1777895337 | 21.67° C | 76% | 1009.4 hPa | 0 mm | 2.24 m/s, 208° | 688 W/m² | - |
| 1777895033 | 21.67° C | 75% | 1009.4 hPa | 0 mm | 1.79 m/s, 280° | 715 W/m² | - |
| 1777894729 | 21.11° C | 74% | 1009.5 hPa | 0 mm | 1.79 m/s, 191° | 681 W/m² | - |
| 1777894425 | 21.67° C | 76% | 1009.6 hPa | 0 mm | 1.79 m/s, 154° | 692 W/m² | - |
| 1777894120 | 21.11° C | 77% | 1009.8 hPa | 0 mm | 0.45 m/s, 291° | 398 W/m² | - |
| 1777893817 | 21.11° C | 76% | 1009.6 hPa | 0 mm | 2.24 m/s, 203° | 160 W/m² | - |
| 1777893512 | 21.11° C | 77% | 1009.6 hPa | 0 mm | 2.68 m/s, 200° | 172 W/m² | - |
| 1777893212 | 20.56° C | 76% | 1009.8 hPa | 0 mm | 2.68 m/s, 253° | 687 W/m² | - |
| 1777892911 | 20.56° C | 78% | 1009.6 hPa | 0 mm | 2.68 m/s, 212° | 724 W/m² | - |
| 1777892612 | 20.56° C | 78% | 1010 hPa | 0 mm | 2.24 m/s, 198° | 285 W/m² | - |
| 1777892311 | 20° C | 79% | 1010 hPa | 0 mm | 1.79 m/s, 199° | 734 W/m² | - |
| 1777892011 | 20° C | 80% | 1010.2 hPa | 0 mm | 4.47 m/s, 204° | 748 W/m² | - |
| 1777891711 | 20° C | 81% | 1010.1 hPa | 0 mm | 1.79 m/s, 210° | 167 W/m² | - |
| 1777891411 | 20° C | 82% | 1010.2 hPa | 0 mm | 1.34 m/s, 264° | 165 W/m² | - |
| 1777891111 | 20° C | 81% | 1010.4 hPa | 0 mm | 0.45 m/s, 348° | 181 W/m² | - |
| 1777890812 | 20° C | 81% | 1010.1 hPa | 0 mm | 2.68 m/s, 211° | 174 W/m² | - |
* Rain latest hour (hover to see other rain measurements)
** Current wind speed in m/s (hover to see current wind gust speed)